Lanark, United Kingdom
Current Conditions -  °F | °C
As of 8:20 AM on Friday 19 Dec 2014 (Local Time) from EGPH Reporting Station
Rain Showers Rain Showers  
Wind Chill:   Ceiling: Unl
Heat Index:   Visibility: 6mi
Dew Point:   Wind: 14mph
Humidity: 87%   Direction: 260°W
Pressure: 29.56"   Gusts: NA
Location:  55.67°N, 3.78°W
Report Text: EGPH 190820Z 26012KT 9999 -SHRA FEW009 SCT016CB 04/02 Q1001
Loading
Personal Weather Stations






























Interactive Weather Map New forecast layout! Learn more

10-Day Weather Forecast

Advertisements
Track Severe Weather on mobile